sensor_id;sensor_type;location;lat;lon;timestamp;pressure;altitude;pressure_sealevel;temperature;humidity
9889;BME280;4983;42.112;24.738;2023-09-19T00:00:07;100089.69;;;17.51;98.60
9889;BME280;4983;42.112;24.738;2023-09-19T00:02:34;100092.22;;;17.52;98.91
9889;BME280;4983;42.112;24.738;2023-09-19T00:05:03;100087.25;;;17.86;98.31
9889;BME280;4983;42.112;24.738;2023-09-19T00:07:30;100088.38;;;18.00;97.35
9889;BME280;4983;42.112;24.738;2023-09-19T00:09:57;100087.63;;;17.83;98.71
9889;BME280;4983;42.112;24.738;2023-09-19T00:12:24;100090.69;;;17.50;98.63
9889;BME280;4983;42.112;24.738;2023-09-19T00:14:52;100093.09;;;17.53;98.72
9889;BME280;4983;42.112;24.738;2023-09-19T00:17:19;100087.66;;;17.45;97.56
9889;BME280;4983;42.112;24.738;2023-09-19T00:19:46;100085.44;;;17.40;97.94
9889;BME280;4983;42.112;24.738;2023-09-19T00:22:17;100088.13;;;17.56;99.53
9889;BME280;4983;42.112;24.738;2023-09-19T00:24:45;100087.50;;;17.30;99.09
9889;BME280;4983;42.112;24.738;2023-09-19T00:27:12;100083.50;;;17.02;100.00
9889;BME280;4983;42.112;24.738;2023-09-19T00:29:39;100084.78;;;17.22;100.00
9889;BME280;4983;42.112;24.738;2023-09-19T00:32:08;100077.56;;;17.45;98.89
9889;BME280;4983;42.112;24.738;2023-09-19T00:34:35;100075.69;;;17.46;98.97
9889;BME280;4983;42.112;24.738;2023-09-19T00:37:02;100077.72;;;17.36;99.65
9889;BME280;4983;42.112;24.738;2023-09-19T00:39:29;100074.13;;;17.35;99.75
9889;BME280;4983;42.112;24.738;2023-09-19T00:41:57;100087.72;;;17.21;100.00
9889;BME280;4983;42.112;24.738;2023-09-19T00:44:23;100069.03;;;17.32;100.00
9889;BME280;4983;42.112;24.738;2023-09-19T00:46:52;100073.97;;;17.45;99.39
9889;BME280;4983;42.112;24.738;2023-09-19T00:49:21;100075.53;;;17.31;100.00
9889;BME280;4983;42.112;24.738;2023-09-19T00:51:48;100070.44;;;17.20;100.00
9889;BME280;4983;42.112;24.738;2023-09-19T00:54:16;100068.88;;;17.34;99.46
9889;BME280;4983;42.112;24.738;2023-09-19T00:56:45;100074.34;;;17.26;99.87
9889;BME280;4983;42.112;24.738;2023-09-19T00:59:14;100071.81;;;17.24;100.00
9889;BME280;4983;42.112;24.738;2023-09-19T01:01:41;100081.72;;;17.17;100.00
9889;BME280;4983;42.112;24.738;2023-09-19T01:04:11;100074.56;;;17.16;100.00
9889;BME280;4983;42.112;24.738;2023-09-19T01:06:40;100069.44;;;17.13;99.87
9889;BME280;4983;42.112;24.738;2023-09-19T01:09:07;100071.47;;;17.19;98.61
9889;BME280;4983;42.112;24.738;2023-09-19T01:11:38;100066.00;;;17.11;98.95
9889;BME280;4983;42.112;24.738;2023-09-19T01:14:22;100084.69;;;17.00;98.72
9889;BME280;4983;42.112;24.738;2023-09-19T01:17:01;100067.75;;;17.12;98.55
9889;BME280;4983;42.112;24.738;2023-09-19T01:22:43;100060.63;;;17.42;96.03
9889;BME280;4983;42.112;24.738;2023-09-19T01:25:33;100073.13;;;17.28;96.42
9889;BME280;4983;42.112;24.738;2023-09-19T01:28:29;100076.69;;;16.82;97.79
9889;BME280;4983;42.112;24.738;2023-09-19T01:31:06;100077.25;;;16.46;99.46
9889;BME280;4983;42.112;24.738;2023-09-19T01:33:53;100082.56;;;16.47;100.00
9889;BME280;4983;42.112;24.738;2023-09-19T01:36:22;100072.13;;;16.51;100.00
9889;BME280;4983;42.112;24.738;2023-09-19T01:38:50;100077.22;;;16.38;100.00
9889;BME280;4983;42.112;24.738;2023-09-19T01:41:21;100074.31;;;16.23;100.00
9889;BME280;4983;42.112;24.738;2023-09-19T01:43:52;100079.31;;;16.52;100.00
9889;BME280;4983;42.112;24.738;2023-09-19T01:46:25;100080.84;;;16.38;100.00
9889;BME280;4983;42.112;24.738;2023-09-19T01:48:59;100074.16;;;16.33;100.00
9889;BME280;4983;42.112;24.738;2023-09-19T01:51:37;100069.03;;;16.30;100.00
9889;BME280;4983;42.112;24.738;2023-09-19T01:54:11;100066.63;;;16.11;100.00
9889;BME280;4983;42.112;24.738;2023-09-19T01:56:44;100059.28;;;16.11;100.00
9889;BME280;4983;42.112;24.738;2023-09-19T01:59:14;100059.97;;;16.21;100.00
9889;BME280;4983;42.112;24.738;2023-09-19T02:01:45;100071.22;;;15.94;100.00
9889;BME280;4983;42.112;24.738;2023-09-19T02:04:12;100062.34;;;16.16;100.00
9889;BME280;4983;42.112;24.738;2023-09-19T02:06:40;100055.53;;;16.20;100.00
9889;BME280;4983;42.112;24.738;2023-09-19T02:09:07;100059.13;;;16.37;100.00
9889;BME280;4983;42.112;24.738;2023-09-19T02:11:35;100067.03;;;16.40;100.00
9889;BME280;4983;42.112;24.738;2023-09-19T02:14:02;100062.59;;;16.39;100.00
9889;BME280;4983;42.112;24.738;2023-09-19T02:16:30;100058.13;;;16.46;100.00
9889;BME280;4983;42.112;24.738;2023-09-19T02:18:58;100059.44;;;16.26;100.00
9889;BME280;4983;42.112;24.738;2023-09-19T02:21:26;100052.13;;;16.18;100.00
9889;BME280;4983;42.112;24.738;2023-09-19T02:23:55;100042.91;;;16.03;100.00
9889;BME280;4983;42.112;24.738;2023-09-19T02:26:22;100041.72;;;16.30;100.00
9889;BME280;4983;42.112;24.738;2023-09-19T02:28:50;100038.84;;;16.39;100.00
9889;BME280;4983;42.112;24.738;2023-09-19T02:31:18;100050.78;;;16.06;100.00
9889;BME280;4983;42.112;24.738;2023-09-19T02:33:45;100052.25;;;15.69;100.00
9889;BME280;4983;42.112;24.738;2023-09-19T02:36:14;100056.69;;;15.78;100.00
9889;BME280;4983;42.112;24.738;2023-09-19T02:38:43;100058.56;;;15.85;100.00
9889;BME280;4983;42.112;24.738;2023-09-19T02:41:10;100053.38;;;15.58;100.00
9889;BME280;4983;42.112;24.738;2023-09-19T02:43:37;100046.41;;;15.22;100.00
9889;BME280;4983;42.112;24.738;2023-09-19T02:46:04;100049.47;;;15.19;100.00
9889;BME280;4983;42.112;24.738;2023-09-19T02:48:32;100043.81;;;15.46;100.00
9889;BME280;4983;42.112;24.738;2023-09-19T02:51:00;100052.50;;;15.42;100.00
9889;BME280;4983;42.112;24.738;2023-09-19T02:53:28;100050.81;;;15.49;100.00
9889;BME280;4983;42.112;24.738;2023-09-19T02:55:56;100045.41;;;15.73;100.00
9889;BME280;4983;42.112;24.738;2023-09-19T02:58:24;100043.88;;;15.70;100.00
9889;BME280;4983;42.112;24.738;2023-09-19T03:00:53;100045.75;;;15.78;100.00
9889;BME280;4983;42.112;24.738;2023-09-19T03:03:20;100041.81;;;15.64;100.00
9889;BME280;4983;42.112;24.738;2023-09-19T03:05:50;100049.88;;;15.74;100.00
9889;BME280;4983;42.112;24.738;2023-09-19T03:08:19;100048.69;;;15.84;100.00
9889;BME280;4983;42.112;24.738;2023-09-19T03:10:49;100048.97;;;15.57;100.00
9889;BME280;4983;42.112;24.738;2023-09-19T03:13:16;100046.88;;;15.43;100.00
9889;BME280;4983;42.112;24.738;2023-09-19T03:15:43;100046.06;;;15.59;100.00
9889;BME280;4983;42.112;24.738;2023-09-19T03:18:12;100037.56;;;15.78;100.00
9889;BME280;4983;42.112;24.738;2023-09-19T03:20:41;100039.94;;;15.65;100.00
9889;BME280;4983;42.112;24.738;2023-09-19T03:23:08;100042.31;;;15.60;100.00
9889;BME280;4983;42.112;24.738;2023-09-19T03:25:36;100044.88;;;15.61;100.00
9889;BME280;4983;42.112;24.738;2023-09-19T03:28:05;100042.19;;;15.77;100.00
9889;BME280;4983;42.112;24.738;2023-09-19T03:30:32;100038.56;;;15.61;100.00
9889;BME280;4983;42.112;24.738;2023-09-19T03:33:00;100037.25;;;15.89;100.00
9889;BME280;4983;42.112;24.738;2023-09-19T03:35:27;100040.81;;;15.81;100.00
9889;BME280;4983;42.112;24.738;2023-09-19T03:37:54;100043.53;;;15.65;100.00
9889;BME280;4983;42.112;24.738;2023-09-19T03:40:21;100045.19;;;15.58;100.00
9889;BME280;4983;42.112;24.738;2023-09-19T03:42:49;100063.47;;;15.58;100.00
9889;BME280;4983;42.112;24.738;2023-09-19T03:45:17;100039.78;;;15.66;100.00
9889;BME280;4983;42.112;24.738;2023-09-19T03:47:44;100047.59;;;15.53;100.00
9889;BME280;4983;42.112;24.738;2023-09-19T03:50:12;100038.09;;;15.65;100.00
9889;BME280;4983;42.112;24.738;2023-09-19T03:52:40;100044.22;;;15.59;100.00
9889;BME280;4983;42.112;24.738;2023-09-19T03:55:08;100044.69;;;15.55;100.00
9889;BME280;4983;42.112;24.738;2023-09-19T03:57:36;100053.06;;;15.69;100.00
9889;BME280;4983;42.112;24.738;2023-09-19T04:00:05;100048.50;;;15.70;100.00
9889;BME280;4983;42.112;24.738;2023-09-19T04:02:38;100048.66;;;15.76;100.00
9889;BME280;4983;42.112;24.738;2023-09-19T04:05:05;100051.72;;;15.81;100.00
9889;BME280;4983;42.112;24.738;2023-09-19T04:07:32;100058.22;;;15.72;100.00
9889;BME280;4983;42.112;24.738;2023-09-19T04:10:00;100053.78;;;15.71;100.00
9889;BME280;4983;42.112;24.738;2023-09-19T04:12:27;100052.59;;;15.82;100.00
9889;BME280;4983;42.112;24.738;2023-09-19T04:14:54;100056.19;;;15.90;100.00
9889;BME280;4983;42.112;24.738;2023-09-19T04:17:21;100053.78;;;15.71;100.00
9889;BME280;4983;42.112;24.738;2023-09-19T04:19:50;100058.22;;;15.72;100.00
9889;BME280;4983;42.112;24.738;2023-09-19T04:22:18;100055.66;;;15.71;100.00
9889;BME280;4983;42.112;24.738;2023-09-19T04:24:45;100060.88;;;15.48;100.00
9889;BME280;4983;42.112;24.738;2023-09-19T04:27:12;100054.91;;;15.45;100.00
9889;BME280;4983;42.112;24.738;2023-09-19T04:29:40;100052.56;;;15.66;100.00
9889;BME280;4983;42.112;24.738;2023-09-19T04:32:07;100051.38;;;15.60;100.00
9889;BME280;4983;42.112;24.738;2023-09-19T04:34:35;100054.41;;;15.49;100.00
9889;BME280;4983;42.112;24.738;2023-09-19T04:37:05;100060.91;;;15.23;100.00
9889;BME280;4983;42.112;24.738;2023-09-19T04:39:32;100064.69;;;15.30;100.00
9889;BME280;4983;42.112;24.738;2023-09-19T04:41:59;100063.72;;;15.05;100.00
9889;BME280;4983;42.112;24.738;2023-09-19T04:44:26;100050.00;;;15.23;100.00
9889;BME280;4983;42.112;24.738;2023-09-19T04:46:53;100055.91;;;15.10;100.00
9889;BME280;4983;42.112;24.738;2023-09-19T04:49:20;100047.13;;;15.24;100.00
9889;BME280;4983;42.112;24.738;2023-09-19T04:51:47;100054.06;;;15.19;100.00
9889;BME280;4983;42.112;24.738;2023-09-19T04:54:15;100054.84;;;15.03;100.00
9889;BME280;4983;42.112;24.738;2023-09-19T04:56:43;100049.41;;;15.37;100.00
9889;BME280;4983;42.112;24.738;2023-09-19T04:59:10;100044.88;;;15.53;100.00
9889;BME280;4983;42.112;24.738;2023-09-19T05:01:37;100043.03;;;15.70;100.00
9889;BME280;4983;42.112;24.738;2023-09-19T05:04:04;100046.28;;;15.81;100.00
9889;BME280;4983;42.112;24.738;2023-09-19T05:06:31;100048.69;;;15.92;100.00
9889;BME280;4983;42.112;24.738;2023-09-19T05:09:01;100055.00;;;16.09;100.00
9889;BME280;4983;42.112;24.738;2023-09-19T05:11:32;100051.78;;;16.21;100.00
9889;BME280;4983;42.112;24.738;2023-09-19T05:13:59;100052.31;;;16.33;100.00
9889;BME280;4983;42.112;24.738;2023-09-19T05:16:29;100054.53;;;16.45;100.00
9889;BME280;4983;42.112;24.738;2023-09-19T05:18:57;100054.38;;;16.47;100.00
9889;BME280;4983;42.112;24.738;2023-09-19T05:21:25;100050.28;;;16.51;100.00
9889;BME280;4983;42.112;24.738;2023-09-19T05:23:54;100055.25;;;16.47;100.00
9889;BME280;4983;42.112;24.738;2023-09-19T05:26:21;100056.59;;;16.43;100.00
9889;BME280;4983;42.112;24.738;2023-09-19T05:28:49;100064.25;;;16.56;100.00
9889;BME280;4983;42.112;24.738;2023-09-19T05:31:16;100053.97;;;16.82;100.00
9889;BME280;4983;42.112;24.738;2023-09-19T05:33:43;100056.69;;;16.98;100.00
9889;BME280;4983;42.112;24.738;2023-09-19T05:36:10;100062.13;;;17.06;100.00
9889;BME280;4983;42.112;24.738;2023-09-19T05:38:37;100057.34;;;17.00;99.88
9889;BME280;4983;42.112;24.738;2023-09-19T05:41:06;100060.38;;;17.13;100.00
9889;BME280;4983;42.112;24.738;2023-09-19T05:43:33;100057.44;;;17.22;99.14
9889;BME280;4983;42.112;24.738;2023-09-19T05:46:04;100059.09;;;17.39;98.31
9889;BME280;4983;42.112;24.738;2023-09-19T05:48:32;100066.97;;;17.42;97.78
9889;BME280;4983;42.112;24.738;2023-09-19T05:50:58;100061.63;;;17.49;97.81
9889;BME280;4983;42.112;24.738;2023-09-19T05:53:27;100065.34;;;17.56;98.03
9889;BME280;4983;42.112;24.738;2023-09-19T05:55:54;100065.78;;;17.45;98.41
9889;BME280;4983;42.112;24.738;2023-09-19T05:58:21;100054.72;;;17.61;96.92
9889;BME280;4983;42.112;24.738;2023-09-19T06:00:48;100053.16;;;17.66;97.02
9889;BME280;4983;42.112;24.738;2023-09-19T06:03:16;100049.06;;;17.62;96.66
9889;BME280;4983;42.112;24.738;2023-09-19T06:05:44;100049.06;;;17.93;96.84
9889;BME280;4983;42.112;24.738;2023-09-19T06:08:11;100036.03;;;18.17;95.31
9889;BME280;4983;42.112;24.738;2023-09-19T06:10:38;100033.34;;;18.09;94.88
9889;BME280;4983;42.112;24.738;2023-09-19T06:13:06;100030.91;;;18.14;94.52
9889;BME280;4983;42.112;24.738;2023-09-19T06:15:35;100026.06;;;18.47;93.61
9889;BME280;4983;42.112;24.738;2023-09-19T06:18:03;100019.72;;;18.61;92.61
9889;BME280;4983;42.112;24.738;2023-09-19T06:20:32;100033.44;;;18.61;93.94
9889;BME280;4983;42.112;24.738;2023-09-19T06:22:59;100025.63;;;18.87;92.78
9889;BME280;4983;42.112;24.738;2023-09-19T06:25:27;100024.47;;;18.81;93.16
9889;BME280;4983;42.112;24.738;2023-09-19T06:27:54;100029.59;;;18.84;93.19
9889;BME280;4983;42.112;24.738;2023-09-19T06:30:22;100026.22;;;19.26;91.41
9889;BME280;4983;42.112;24.738;2023-09-19T06:32:55;100013.72;;;19.38;90.77
9889;BME280;4983;42.112;24.738;2023-09-19T06:35:23;100002.78;;;19.59;88.76
9889;BME280;4983;42.112;24.738;2023-09-19T06:37:53;100006.66;;;19.64;88.71
9889;BME280;4983;42.112;24.738;2023-09-19T06:40:23;100004.19;;;19.69;87.87
9889;BME280;4983;42.112;24.738;2023-09-19T06:42:51;100018.59;;;19.71;89.65
9889;BME280;4983;42.112;24.738;2023-09-19T06:45:18;100011.00;;;19.73;88.63
9889;BME280;4983;42.112;24.738;2023-09-19T06:47:47;100014.38;;;19.75;89.78
9889;BME280;4983;42.112;24.738;2023-09-19T06:50:16;100006.91;;;20.05;88.93
9889;BME280;4983;42.112;24.738;2023-09-19T06:52:45;100020.84;;;19.68;90.49
9889;BME280;4983;42.112;24.738;2023-09-19T06:55:17;100005.63;;;19.86;89.50
9889;BME280;4983;42.112;24.738;2023-09-19T06:57:45;100016.72;;;20.14;90.54
9889;BME280;4983;42.112;24.738;2023-09-19T07:00:13;100001.66;;;20.31;88.11
9889;BME280;4983;42.112;24.738;2023-09-19T07:02:44;100002.41;;;20.18;89.42
9889;BME280;4983;42.112;24.738;2023-09-19T07:05:11;100001.38;;;20.19;88.25
9889;BME280;4983;42.112;24.738;2023-09-19T07:07:38;100001.94;;;20.36;88.05
9889;BME280;4983;42.112;24.738;2023-09-19T07:10:06;99993.94;;;20.41;87.43
9889;BME280;4983;42.112;24.738;2023-09-19T07:12:35;99992.50;;;20.72;87.29
9889;BME280;4983;42.112;24.738;2023-09-19T07:15:02;99999.34;;;20.55;86.53
9889;BME280;4983;42.112;24.738;2023-09-19T07:17:32;99992.44;;;20.66;87.36
9889;BME280;4983;42.112;24.738;2023-09-19T07:19:59;100000.69;;;20.66;87.59
9889;BME280;4983;42.112;24.738;2023-09-19T07:22:26;99994.00;;;20.75;87.98
9889;BME280;4983;42.112;24.738;2023-09-19T07:24:54;99989.31;;;20.69;86.65
9889;BME280;4983;42.112;24.738;2023-09-19T07:27:21;99984.75;;;21.16;85.58
9889;BME280;4983;42.112;24.738;2023-09-19T07:29:49;99978.13;;;21.44;84.64
9889;BME280;4983;42.112;24.738;2023-09-19T07:32:16;99964.38;;;21.57;82.10
9889;BME280;4983;42.112;24.738;2023-09-19T07:34:43;99969.53;;;21.67;81.13
9889;BME280;4983;42.112;24.738;2023-09-19T07:37:10;99957.94;;;22.04;80.93
9889;BME280;4983;42.112;24.738;2023-09-19T07:39:38;99948.41;;;22.13;79.13
9889;BME280;4983;42.112;24.738;2023-09-19T07:42:06;99946.28;;;22.08;79.10
9889;BME280;4983;42.112;24.738;2023-09-19T07:44:35;99933.78;;;22.38;78.32
9889;BME280;4983;42.112;24.738;2023-09-19T07:47:03;99934.44;;;22.53;78.56
9889;BME280;4983;42.112;24.738;2023-09-19T07:49:30;99919.06;;;22.90;75.37
9889;BME280;4983;42.112;24.738;2023-09-19T07:51:57;99922.91;;;22.82;76.56
9889;BME280;4983;42.112;24.738;2023-09-19T07:54:24;99912.88;;;23.01;75.04
9889;BME280;4983;42.112;24.738;2023-09-19T07:56:52;99905.84;;;23.05;73.80
9889;BME280;4983;42.112;24.738;2023-09-19T07:59:19;99919.75;;;22.72;75.72
9889;BME280;4983;42.112;24.738;2023-09-19T08:01:47;99916.31;;;22.83;76.05
9889;BME280;4983;42.112;24.738;2023-09-19T08:04:16;99904.97;;;23.17;74.66
9889;BME280;4983;42.112;24.738;2023-09-19T08:06:43;99881.03;;;23.49;73.03
9889;BME280;4983;42.112;24.738;2023-09-19T08:09:10;99882.44;;;23.58;73.27
9889;BME280;4983;42.112;24.738;2023-09-19T08:11:39;99878.25;;;23.49;72.77
9889;BME280;4983;42.112;24.738;2023-09-19T08:14:06;99887.72;;;23.28;73.62
9889;BME280;4983;42.112;24.738;2023-09-19T08:16:34;99875.59;;;23.29;72.05
9889;BME280;4983;42.112;24.738;2023-09-19T08:19:01;99862.59;;;23.67;69.99
9889;BME280;4983;42.112;24.738;2023-09-19T08:21:29;99860.38;;;23.82;69.18
9889;BME280;4983;42.112;24.738;2023-09-19T08:23:56;99858.16;;;24.22;69.32
9889;BME280;4983;42.112;24.738;2023-09-19T08:26:23;99827.53;;;24.41;66.50
9889;BME280;4983;42.112;24.738;2023-09-19T08:28:50;99830.72;;;24.63;66.33
9889;BME280;4983;42.112;24.738;2023-09-19T08:31:18;99829.63;;;24.64;65.95
9889;BME280;4983;42.112;24.738;2023-09-19T08:33:47;99837.03;;;24.70;67.45
9889;BME280;4983;42.112;24.738;2023-09-19T08:36:15;99817.84;;;24.50;64.45
9889;BME280;4983;42.112;24.738;2023-09-19T08:38:43;99824.34;;;24.20;65.60
9889;BME280;4983;42.112;24.738;2023-09-19T08:41:10;99841.47;;;24.10;68.12
9889;BME280;4983;42.112;24.738;2023-09-19T08:43:39;99835.75;;;24.05;67.11
9889;BME280;4983;42.112;24.738;2023-09-19T08:46:10;99834.06;;;24.47;68.60
9889;BME280;4983;42.112;24.738;2023-09-19T08:48:41;99812.94;;;24.52;65.62
9889;BME280;4983;42.112;24.738;2023-09-19T08:51:15;99815.88;;;24.75;67.63
9889;BME280;4983;42.112;24.738;2023-09-19T08:53:51;99826.41;;;24.85;68.04
9889;BME280;4983;42.112;24.738;2023-09-19T08:56:18;99804.16;;;25.27;63.69
9889;BME280;4983;42.112;24.738;2023-09-19T08:58:50;99785.56;;;25.57;62.76
9889;BME280;4983;42.112;24.738;2023-09-19T09:01:20;99781.72;;;25.70;60.91
9889;BME280;4983;42.112;24.738;2023-09-19T09:03:51;99775.97;;;25.83;60.78
9889;BME280;4983;42.112;24.738;2023-09-19T09:06:19;99778.16;;;26.04;59.05
9889;BME280;4983;42.112;24.738;2023-09-19T09:08:48;99758.38;;;26.00;56.21
9889;BME280;4983;42.112;24.738;2023-09-19T09:11:17;99758.97;;;26.02;59.29
9889;BME280;4983;42.112;24.738;2023-09-19T09:13:44;99760.56;;;26.21;56.46
9889;BME280;4983;42.112;24.738;2023-09-19T09:16:12;99754.41;;;26.31;57.32
9889;BME280;4983;42.112;24.738;2023-09-19T09:18:39;99750.06;;;26.12;57.16
9889;BME280;4983;42.112;24.738;2023-09-19T09:21:07;99732.56;;;26.00;53.99
9889;BME280;4983;42.112;24.738;2023-09-19T09:23:34;99745.13;;;26.14;56.92
9889;BME280;4983;42.112;24.738;2023-09-19T09:26:02;99742.09;;;26.38;56.24
9889;BME280;4983;42.112;24.738;2023-09-19T09:28:33;99746.88;;;26.54;55.96
9889;BME280;4983;42.112;24.738;2023-09-19T09:31:01;99738.31;;;26.56;55.60
9889;BME280;4983;42.112;24.738;2023-09-19T09:33:34;99732.84;;;26.72;54.44
9889;BME280;4983;42.112;24.738;2023-09-19T09:36:03;99729.16;;;26.95;54.83
9889;BME280;4983;42.112;24.738;2023-09-19T09:38:43;99710.97;;;27.04;52.50
9889;BME280;4983;42.112;24.738;2023-09-19T09:41:12;99713.28;;;27.51;51.81
9889;BME280;4983;42.112;24.738;2023-09-19T09:43:54;99713.53;;;27.50;53.11
9889;BME280;4983;42.112;24.738;2023-09-19T09:46:21;99692.13;;;27.50;50.55
9889;BME280;4983;42.112;24.738;2023-09-19T09:49:06;99687.78;;;27.26;49.85
9889;BME280;4983;42.112;24.738;2023-09-19T09:51:58;99685.03;;;27.43;49.89
9889;BME280;4983;42.112;24.738;2023-09-19T09:54:28;99676.34;;;27.72;49.24
9889;BME280;4983;42.112;24.738;2023-09-19T09:57:02;99704.59;;;27.64;53.09
9889;BME280;4983;42.112;24.738;2023-09-19T09:59:49;99701.53;;;27.05;53.60
9889;BME280;4983;42.112;24.738;2023-09-19T10:02:20;99678.47;;;27.04;50.40
9889;BME280;4983;42.112;24.738;2023-09-19T10:04:51;99684.03;;;26.76;50.76
9889;BME280;4983;42.112;24.738;2023-09-19T10:07:41;99704.09;;;26.27;54.82
9889;BME280;4983;42.112;24.738;2023-09-19T10:10:15;99712.16;;;25.60;54.48
9889;BME280;4983;42.112;24.738;2023-09-19T10:12:58;99724.34;;;26.05;55.99
9889;BME280;4983;42.112;24.738;2023-09-19T10:15:31;99711.09;;;26.30;54.96
9889;BME280;4983;42.112;24.738;2023-09-19T10:18:00;99691.25;;;26.89;52.86
9889;BME280;4983;42.112;24.738;2023-09-19T10:20:28;99687.72;;;27.21;50.32
9889;BME280;4983;42.112;24.738;2023-09-19T10:23:06;99690.25;;;27.56;52.70
9889;BME280;4983;42.112;24.738;2023-09-19T10:25:37;99655.75;;;27.73;48.04
9889;BME280;4983;42.112;24.738;2023-09-19T10:28:07;99653.59;;;28.13;48.21
9889;BME280;4983;42.112;24.738;2023-09-19T10:30:41;99653.59;;;28.51;46.89
9889;BME280;4983;42.112;24.738;2023-09-19T10:33:11;99629.97;;;28.16;47.84
9889;BME280;4983;42.112;24.738;2023-09-19T10:35:40;99637.69;;;28.09;47.11
9889;BME280;4983;42.112;24.738;2023-09-19T10:38:10;99646.75;;;27.99;48.45
9889;BME280;4983;42.112;24.738;2023-09-19T10:40:39;99646.50;;;28.01;48.47
9889;BME280;4983;42.112;24.738;2023-09-19T10:43:16;99643.00;;;28.10;48.08
9889;BME280;4983;42.112;24.738;2023-09-19T10:45:45;99620.59;;;28.00;46.48
9889;BME280;4983;42.112;24.738;2023-09-19T10:48:15;99613.81;;;28.13;46.38
9889;BME280;4983;42.112;24.738;2023-09-19T10:50:47;99612.47;;;28.37;45.16
9889;BME280;4983;42.112;24.738;2023-09-19T10:53:16;99607.94;;;28.52;45.45
9889;BME280;4983;42.112;24.738;2023-09-19T10:55:50;99602.06;;;28.75;45.12
9889;BME280;4983;42.112;24.738;2023-09-19T10:58:31;99588.63;;;28.46;44.94
9889;BME280;4983;42.112;24.738;2023-09-19T11:01:00;99585.91;;;28.51;44.85
9889;BME280;4983;42.112;24.738;2023-09-19T11:03:28;99590.97;;;28.59;46.55
9889;BME280;4983;42.112;24.738;2023-09-19T11:06:05;99595.88;;;28.73;45.21
9889;BME280;4983;42.112;24.738;2023-09-19T11:08:57;99607.34;;;28.50;48.45
9889;BME280;4983;42.112;24.738;2023-09-19T11:11:56;99591.06;;;28.21;47.86
9889;BME280;4983;42.112;24.738;2023-09-19T11:14:37;99594.41;;;28.18;46.91
9889;BME280;4983;42.112;24.738;2023-09-19T11:17:30;99600.00;;;28.23;49.80
9889;BME280;4983;42.112;24.738;2023-09-19T11:20:19;99603.63;;;28.66;49.32
9889;BME280;4983;42.112;24.738;2023-09-19T11:23:17;99588.19;;;28.59;47.55
9889;BME280;4983;42.112;24.738;2023-09-19T11:25:49;99580.28;;;28.72;48.17
9889;BME280;4983;42.112;24.738;2023-09-19T11:28:30;99568.44;;;28.87;46.25
9889;BME280;4983;42.112;24.738;2023-09-19T11:31:41;99551.97;;;28.59;44.24
9889;BME280;4983;42.112;24.738;2023-09-19T11:34:37;99555.94;;;28.15;46.61
9889;BME280;4983;42.112;24.738;2023-09-19T11:40:36;99550.66;;;28.93;44.82
9889;BME280;4983;42.112;24.738;2023-09-19T11:43:30;99538.53;;;28.51;45.81
9889;BME280;4983;42.112;24.738;2023-09-19T11:46:08;99562.28;;;28.85;46.02
9889;BME280;4983;42.112;24.738;2023-09-19T11:48:35;99541.31;;;29.04;46.55
9889;BME280;4983;42.112;24.738;2023-09-19T11:51:17;99540.25;;;28.83;47.04
9889;BME280;4983;42.112;24.738;2023-09-19T11:53:52;99530.72;;;28.79;45.61
9889;BME280;4983;42.112;24.738;2023-09-19T11:56:20;99509.84;;;29.08;43.97
9889;BME280;4983;42.112;24.738;2023-09-19T11:58:51;99514.38;;;28.88;46.35
9889;BME280;4983;42.112;24.738;2023-09-19T12:01:29;99529.22;;;28.93;45.92
9889;BME280;4983;42.112;24.738;2023-09-19T12:03:59;99515.47;;;28.87;45.33
9889;BME280;4983;42.112;24.738;2023-09-19T12:06:26;99510.34;;;29.00;44.31
9889;BME280;4983;42.112;24.738;2023-09-19T12:08:55;99515.41;;;29.03;45.16
9889;BME280;4983;42.112;24.738;2023-09-19T12:11:23;99491.78;;;29.16;43.12
9889;BME280;4983;42.112;24.738;2023-09-19T12:13:51;99505.50;;;29.22;44.99
9889;BME280;4983;42.112;24.738;2023-09-19T12:16:20;99503.59;;;29.33;45.02
9889;BME280;4983;42.112;24.738;2023-09-19T12:18:50;99496.63;;;29.30;44.06
9889;BME280;4983;42.112;24.738;2023-09-19T12:21:25;99495.63;;;29.10;44.38
9889;BME280;4983;42.112;24.738;2023-09-19T12:24:03;99515.00;;;28.95;47.17
9889;BME280;4983;42.112;24.738;2023-09-19T12:26:39;99511.25;;;29.11;46.80
9889;BME280;4983;42.112;24.738;2023-09-19T12:29:12;99511.81;;;29.08;47.81
9889;BME280;4983;42.112;24.738;2023-09-19T12:31:48;99497.22;;;28.96;45.70
9889;BME280;4983;42.112;24.738;2023-09-19T12:34:19;99499.16;;;28.95;44.54
9889;BME280;4983;42.112;24.738;2023-09-19T12:36:47;99483.59;;;28.73;44.67
9889;BME280;4983;42.112;24.738;2023-09-19T12:39:23;99484.44;;;28.42;44.55
9889;BME280;4983;42.112;24.738;2023-09-19T12:41:51;99491.19;;;28.51;44.34
9889;BME280;4983;42.112;24.738;2023-09-19T12:44:20;99481.22;;;28.55;45.75
9889;BME280;4983;42.112;24.738;2023-09-19T12:46:50;99482.00;;;28.24;45.29
9889;BME280;4983;42.112;24.738;2023-09-19T12:49:22;99475.34;;;28.51;44.02
9889;BME280;4983;42.112;24.738;2023-09-19T12:51:49;99475.59;;;28.81;44.52
9889;BME280;4983;42.112;24.738;2023-09-19T12:54:20;99464.09;;;28.73;44.67
9889;BME280;4983;42.112;24.738;2023-09-19T12:56:48;99463.66;;;28.86;44.71
9889;BME280;4983;42.112;24.738;2023-09-19T12:59:16;99466.38;;;28.81;45.69
9889;BME280;4983;42.112;24.738;2023-09-19T13:01:43;99469.28;;;28.59;46.01
9889;BME280;4983;42.112;24.738;2023-09-19T13:04:13;99461.59;;;28.18;44.89
9889;BME280;4983;42.112;24.738;2023-09-19T13:06:45;99479.09;;;28.14;47.43
9889;BME280;4983;42.112;24.738;2023-09-19T13:09:15;99471.44;;;28.26;44.66
9889;BME280;4983;42.112;24.738;2023-09-19T13:11:42;99475.00;;;28.21;48.71
9889;BME280;4983;42.112;24.738;2023-09-19T13:14:16;99480.88;;;28.25;48.36
9889;BME280;4983;42.112;24.738;2023-09-19T13:16:56;99470.97;;;27.86;46.79
9889;BME280;4983;42.112;24.738;2023-09-19T13:19:37;99472.16;;;27.52;48.29
9889;BME280;4983;42.112;24.738;2023-09-19T13:22:35;99481.47;;;27.79;46.56
9889;BME280;4983;42.112;24.738;2023-09-19T13:25:04;99486.41;;;28.20;47.94